createdAt,value
2023-02-11T00:00:34.857Z,23.333333
2023-02-11T00:05:17.352Z,24.000000
2023-02-11T00:10:20.002Z,24.666667
2023-02-11T00:15:22.358Z,26.000000
2023-02-11T00:20:24.856Z,24.666667
2023-02-11T00:25:28.071Z,21.000000
2023-02-11T00:30:29.525Z,22.333333
2023-02-11T00:35:32.131Z,25.000000
2023-02-11T00:40:35.953Z,23.666667
2023-02-11T00:45:16.986Z,21.000000
2023-02-11T00:50:19.484Z,21.000000
2023-02-11T00:55:22.244Z,21.000000
2023-02-11T01:00:25.142Z,22.066667
2023-02-11T01:05:27.237Z,25.000000
2023-02-11T01:10:29.542Z,25.333333
2023-02-11T01:15:32.066Z,26.000000
2023-02-11T01:20:34.789Z,26.666667
2023-02-11T01:25:16.878Z,28.000000
2023-02-11T01:30:19.080Z,28.666667
2023-02-11T01:35:22.027Z,30.000000
2023-02-11T01:40:24.347Z,29.714286
2023-02-11T01:45:27.390Z,29.000000
2023-02-11T01:50:30.038Z,29.333333
2023-02-11T01:55:32.146Z,30.000000
2023-02-11T02:00:34.425Z,30.666667
2023-02-11T02:05:16.704Z,32.000000
2023-02-11T02:10:19.334Z,32.666667
2023-02-11T02:15:22.845Z,34.000000
2023-02-11T02:20:24.218Z,33.714286
2023-02-11T02:25:26.441Z,33.000000
2023-02-11T02:30:29.343Z,31.000000
2023-02-11T02:35:31.608Z,27.000000
2023-02-11T02:40:34.161Z,29.000000
2023-02-11T02:45:16.196Z,33.000000
2023-02-11T02:50:19.225Z,32.000000
2023-02-11T02:55:21.272Z,30.000000
2023-02-11T03:00:23.366Z,30.000000
2023-02-11T03:05:25.786Z,30.000000
2023-02-11T03:10:27.899Z,31.333333
2023-02-11T03:15:30.433Z,34.000000
2023-02-11T03:20:32.827Z,33.666667
2023-02-11T03:25:35.891Z,33.000000
2023-02-11T03:30:17.176Z,31.333333
2023-02-11T03:35:19.916Z,28.000000
2023-02-11T03:40:22.359Z,27.428571
2023-02-11T03:45:24.798Z,26.000000
2023-02-11T03:50:27.348Z,28.666667
2023-02-11T03:55:30.014Z,34.000000
2023-02-11T04:00:32.494Z,32.666667
2023-02-11T04:05:34.681Z,30.000000
2023-02-11T04:10:16.430Z,28.666667
2023-02-11T04:15:18.777Z,26.000000
2023-02-11T04:20:21.938Z,26.666667
2023-02-11T04:25:24.582Z,28.000000
2023-02-11T04:30:27.462Z,27.333333
2023-02-11T04:35:30.152Z,26.000000
2023-02-11T04:40:33.028Z,25.333333
2023-02-11T04:45:16.993Z,24.000000
2023-02-11T04:50:19.562Z,24.333333
2023-02-11T04:55:22.203Z,25.000000
2023-02-11T05:00:23.729Z,25.285714
2023-02-11T05:05:26.147Z,26.000000
2023-02-11T05:10:28.507Z,25.333333
2023-02-11T05:15:31.535Z,24.000000
2023-02-11T05:20:35.581Z,25.333333
2023-02-11T05:25:16.885Z,28.000000
2023-02-11T05:30:19.646Z,27.000000
2023-02-11T05:35:21.871Z,25.000000
2023-02-11T05:40:24.113Z,25.285714
2023-02-11T05:45:27.411Z,26.000000
2023-02-11T05:50:30.689Z,26.333333
2023-02-11T05:55:33.611Z,27.000000
2023-02-11T06:00:16.431Z,27.000000
2023-02-11T06:05:18.790Z,27.000000
2023-02-11T06:10:21.723Z,26.666667
2023-02-11T06:15:24.358Z,26.000000
2023-02-11T06:20:27.367Z,26.333333
2023-02-11T06:25:30.696Z,27.000000
2023-02-11T06:30:33.197Z,26.666667
2023-02-11T06:35:35.992Z,26.000000
2023-02-11T06:40:18.387Z,26.000000
2023-02-11T06:45:20.848Z,26.000000
2023-02-11T06:50:23.880Z,26.571429
2023-02-11T06:55:26.766Z,28.000000
2023-02-11T07:00:29.929Z,28.666667
2023-02-11T07:05:32.933Z,30.000000
2023-02-11T07:10:35.478Z,29.666667
2023-02-11T07:15:17.688Z,29.000000
2023-02-11T07:20:21.903Z,30.333333
2023-02-11T07:25:23.286Z,33.000000
2023-02-11T07:30:26.251Z,32.333333
2023-02-11T07:35:28.533Z,31.000000
2023-02-11T07:40:31.023Z,30.666667
2023-02-11T07:45:33.723Z,30.000000
2023-02-11T07:50:17.516Z,31.000000
2023-02-11T07:55:19.389Z,33.000000
2023-02-11T08:00:21.911Z,32.000000
2023-02-11T08:05:24.186Z,30.000000
2023-02-11T08:10:27.684Z,31.666667
2023-02-11T08:15:29.554Z,35.000000
2023-02-11T08:20:32.273Z,34.333333
2023-02-11T08:25:34.641Z,33.000000
2023-02-11T08:30:17.061Z,33.333333
2023-02-11T08:35:19.668Z,34.000000
2023-02-11T08:40:22.225Z,33.428571
2023-02-11T08:45:24.940Z,32.000000
2023-02-11T08:50:28.141Z,33.000000
2023-02-11T08:55:30.836Z,35.000000
2023-02-11T09:00:33.269Z,35.333333
2023-02-11T09:05:35.703Z,36.000000
2023-02-11T09:10:18.370Z,37.333333
2023-02-11T09:15:21.297Z,40.000000
2023-02-11T09:20:24.120Z,39.428571
2023-02-11T09:25:26.814Z,38.000000
2023-02-11T09:30:29.180Z,38.000000
2023-02-11T09:35:32.096Z,38.000000
2023-02-11T09:40:34.523Z,38.000000
2023-02-11T09:45:17.066Z,38.000000
2023-02-11T09:50:20.304Z,40.666667
2023-02-11T09:55:23.441Z,46.000000
2023-02-11T10:00:26.562Z,46.000000
2023-02-11T10:05:30.181Z,46.000000
2023-02-11T10:10:32.999Z,46.666667
2023-02-11T10:15:35.987Z,48.000000
2023-02-11T10:20:18.844Z,46.666667
2023-02-11T10:25:21.011Z,44.000000
2023-02-11T10:30:23.327Z,46.000000
2023-02-11T10:35:25.648Z,51.000000
2023-02-11T10:40:27.885Z,52.666667
2023-02-11T10:45:30.883Z,56.000000
2023-02-11T10:50:34.245Z,57.000000
2023-02-11T10:55:17.111Z,59.000000
2023-02-11T11:00:19.746Z,59.000000
2023-02-11T11:05:22.253Z,59.000000
2023-02-11T11:10:24.960Z,58.733333
2023-02-11T11:15:27.865Z,58.000000
2023-02-11T11:20:30.967Z,54.333333
2023-02-11T11:25:33.949Z,47.000000
2023-02-11T11:30:16.074Z,46.666667
2023-02-11T11:35:18.731Z,46.000000
2023-02-11T11:40:21.923Z,45.666667
2023-02-11T11:45:25.162Z,45.000000
2023-02-11T11:50:27.377Z,45.000000
2023-02-11T11:55:30.287Z,45.000000
2023-02-11T12:00:33.039Z,46.666667
2023-02-11T12:05:35.468Z,50.000000
2023-02-11T12:10:17.746Z,49.666667
2023-02-11T12:15:20.555Z,49.000000
2023-02-11T12:20:22.864Z,50.714286
2023-02-11T12:25:25.336Z,55.000000
2023-02-11T12:30:27.991Z,54.666667
2023-02-11T12:35:30.836Z,54.000000
2023-02-11T12:40:33.181Z,56.000000
2023-02-11T12:45:36.261Z,60.000000
2023-02-11T12:50:18.490Z,61.000000
2023-02-11T12:55:21.624Z,63.000000
2023-02-11T13:00:24.042Z,61.571429
2023-02-11T13:05:26.814Z,58.000000
2023-02-11T13:10:29.409Z,58.666667
2023-02-11T13:15:32.022Z,60.000000
2023-02-11T13:20:34.727Z,59.000000
2023-02-11T13:25:17.886Z,57.000000
2023-02-11T13:30:20.553Z,53.000000
2023-02-11T13:35:23.459Z,45.000000
2023-02-11T13:40:26.767Z,50.666667
2023-02-11T13:45:29.710Z,62.000000
2023-02-11T13:50:32.618Z,59.666667
2023-02-11T13:55:35.330Z,55.000000
2023-02-11T14:00:18.316Z,53.333333
2023-02-11T14:05:20.778Z,50.000000
2023-02-11T14:10:23.638Z,48.285714
2023-02-11T14:15:26.361Z,44.000000
2023-02-11T14:20:29.539Z,42.666667
2023-02-11T14:25:31.963Z,40.000000
2023-02-11T14:30:35.338Z,40.333333
2023-02-11T14:35:17.392Z,41.000000
2023-02-11T14:40:20.054Z,41.333333
2023-02-11T14:45:23.045Z,42.000000
2023-02-11T14:50:26.235Z,41.000000
2023-02-11T14:55:29.031Z,39.000000
2023-02-11T15:00:30.988Z,39.333333
2023-02-11T15:05:33.990Z,40.000000
2023-02-11T15:10:16.500Z,40.000000
2023-02-11T15:15:19.501Z,40.000000
2023-02-11T15:20:22.318Z,42.857143
2023-02-11T15:25:24.769Z,50.000000
2023-02-11T15:30:27.728Z,46.333333
2023-02-11T15:35:30.406Z,39.000000
2023-02-11T15:40:33.325Z,39.666667
2023-02-11T15:45:35.956Z,41.000000
2023-02-11T15:50:18.286Z,37.333333
2023-02-11T15:55:21.071Z,30.000000
2023-02-11T16:00:24.008Z,29.428571
2023-02-11T16:05:28.216Z,28.000000
2023-02-11T16:10:30.341Z,26.333333
2023-02-11T16:15:33.641Z,23.000000
2023-02-11T16:20:16.039Z,24.333333
2023-02-11T16:25:19.106Z,27.000000
2023-02-11T16:30:21.276Z,27.666667
2023-02-11T16:35:24.115Z,29.000000
2023-02-11T16:40:27.826Z,28.666667
2023-02-11T16:45:30.696Z,28.000000
2023-02-11T16:50:32.881Z,30.000000
2023-02-11T16:55:35.647Z,34.000000
2023-02-11T17:00:18.069Z,30.666667
2023-02-11T17:05:20.888Z,24.000000
2023-02-11T17:10:23.869Z,23.428571
2023-02-11T17:15:29.425Z,22.000000
2023-02-11T17:25:16.497Z,26.000000
2023-02-11T17:30:20.260Z,26.000000
2023-02-11T17:35:22.676Z,26.000000
2023-02-11T17:40:24.892Z,25.733333
2023-02-11T17:45:27.187Z,25.000000
2023-02-11T17:50:30.208Z,26.000000
2023-02-11T17:55:32.756Z,28.000000
2023-02-11T18:00:35.834Z,28.000000
2023-02-11T18:05:18.217Z,28.000000
2023-02-11T18:10:20.969Z,28.666667
2023-02-11T18:15:23.728Z,30.000000
2023-02-11T18:20:26.507Z,28.666667
2023-02-11T18:25:28.987Z,26.000000
2023-02-11T18:30:31.739Z,26.333333
2023-02-11T18:35:34.850Z,27.000000
2023-02-11T18:40:17.540Z,26.000000
2023-02-11T18:45:20.207Z,24.000000
2023-02-11T18:50:23.048Z,25.428571
2023-02-11T18:55:26.283Z,29.000000
2023-02-11T19:00:29.094Z,27.666667
2023-02-11T19:05:32.266Z,25.000000
2023-02-11T19:10:35.548Z,26.333333
2023-02-11T19:15:18.010Z,29.000000
2023-02-11T19:20:20.985Z,29.333333
2023-02-11T19:25:24.042Z,30.000000
2023-02-11T19:30:26.839Z,28.000000
2023-02-11T19:35:30.059Z,24.000000
2023-02-11T19:40:33.001Z,25.000000
2023-02-11T19:45:35.680Z,27.000000
2023-02-11T19:50:17.984Z,25.333333
2023-02-11T19:55:21.334Z,22.000000
2023-02-11T20:00:23.327Z,22.571429
2023-02-11T20:05:25.616Z,24.000000
2023-02-11T20:10:28.151Z,23.000000
2023-02-11T20:15:31.762Z,21.000000
2023-02-11T20:20:35.259Z,21.333333
2023-02-11T20:25:17.597Z,22.000000
2023-02-11T20:30:20.073Z,21.666667
2023-02-11T20:35:22.386Z,21.000000
2023-02-11T20:40:24.492Z,21.266667
2023-02-11T20:45:27.050Z,22.000000
2023-02-11T20:50:29.852Z,22.666667
2023-02-11T20:55:33.089Z,24.000000
2023-02-11T21:00:35.747Z,22.666667
2023-02-11T21:05:18.846Z,20.000000
2023-02-11T21:10:22.129Z,20.000000
2023-02-11T21:15:25.100Z,20.000000
2023-02-11T21:20:28.204Z,20.000000
2023-02-11T21:25:31.038Z,20.000000
2023-02-11T21:30:34.323Z,19.000000
2023-02-11T21:35:16.818Z,17.000000
2023-02-11T21:40:22.842Z,18.333333
2023-02-11T21:45:22.427Z,21.000000
2023-02-11T21:50:24.652Z,20.466667
2023-02-11T21:55:27.992Z,19.000000
2023-02-11T22:00:31.577Z,19.333333
2023-02-11T22:05:34.614Z,20.000000
2023-02-11T22:10:17.465Z,19.666667
2023-02-11T22:15:20.550Z,19.000000
2023-02-11T22:20:23.695Z,18.142857
2023-02-11T22:25:26.741Z,16.000000
2023-02-11T22:30:29.833Z,16.666667
2023-02-11T22:35:32.552Z,18.000000
2023-02-11T22:40:34.951Z,19.000000
2023-02-11T22:45:17.417Z,21.000000
2023-02-11T22:50:19.961Z,20.333333
2023-02-11T22:55:22.622Z,19.000000
2023-02-11T23:00:26.222Z,18.666667
2023-02-11T23:05:29.014Z,18.000000
2023-02-11T23:10:31.427Z,18.666667
2023-02-11T23:15:34.633Z,20.000000
2023-02-11T23:20:16.977Z,19.333333
2023-02-11T23:25:21.239Z,18.000000
2023-02-11T23:30:23.629Z,18.000000
2023-02-11T23:35:25.514Z,18.000000
2023-02-11T23:40:28.510Z,17.333333
2023-02-11T23:45:32.624Z,16.000000
2023-02-11T23:50:35.100Z,15.666667
2023-02-11T23:55:18.447Z,15.000000
